sensor_id;sensor_type;location;lat;lon;timestamp;P1;durP1;ratioP1;P2;durP2;ratioP2
47605;SDS011;55448;51.330;4.946;2022-08-02T00:02:21;7.10;;;3.20;;
47605;SDS011;55448;51.330;4.946;2022-08-02T00:04:47;7.40;;;3.17;;
47605;SDS011;55448;51.330;4.946;2022-08-02T00:07:13;6.40;;;3.00;;
47605;SDS011;55448;51.330;4.946;2022-08-02T00:09:39;14.30;;;3.63;;
47605;SDS011;55448;51.330;4.946;2022-08-02T00:12:06;11.02;;;3.35;;
47605;SDS011;55448;51.330;4.946;2022-08-02T00:14:32;13.50;;;3.53;;
47605;SDS011;55448;51.330;4.946;2022-08-02T00:16:58;7.13;;;3.30;;
47605;SDS011;55448;51.330;4.946;2022-08-02T00:19:23;9.32;;;3.47;;
47605;SDS011;55448;51.330;4.946;2022-08-02T00:21:49;7.97;;;3.47;;
47605;SDS011;55448;51.330;4.946;2022-08-02T00:24:15;7.82;;;3.15;;
47605;SDS011;55448;51.330;4.946;2022-08-02T00:26:40;6.07;;;3.25;;
47605;SDS011;55448;51.330;4.946;2022-08-02T00:29:06;10.32;;;3.95;;
47605;SDS011;55448;51.330;4.946;2022-08-02T00:31:32;9.57;;;3.80;;
47605;SDS011;55448;51.330;4.946;2022-08-02T00:33:57;7.50;;;3.38;;
47605;SDS011;55448;51.330;4.946;2022-08-02T00:36:23;6.95;;;3.38;;
47605;SDS011;55448;51.330;4.946;2022-08-02T00:38:49;8.23;;;3.63;;
47605;SDS011;55448;51.330;4.946;2022-08-02T00:41:16;10.95;;;3.80;;
47605;SDS011;55448;51.330;4.946;2022-08-02T00:43:44;7.53;;;3.58;;
47605;SDS011;55448;51.330;4.946;2022-08-02T00:46:11;9.90;;;3.28;;
47605;SDS011;55448;51.330;4.946;2022-08-02T00:48:37;8.32;;;3.40;;
47605;SDS011;55448;51.330;4.946;2022-08-02T00:51:03;7.43;;;3.22;;
47605;SDS011;55448;51.330;4.946;2022-08-02T00:53:29;8.55;;;3.40;;
47605;SDS011;55448;51.330;4.946;2022-08-02T00:55:55;7.28;;;3.13;;
47605;SDS011;55448;51.330;4.946;2022-08-02T00:58:21;10.23;;;3.83;;
47605;SDS011;55448;51.330;4.946;2022-08-02T01:00:47;9.50;;;3.70;;
47605;SDS011;55448;51.330;4.946;2022-08-02T01:03:12;7.53;;;3.28;;
47605;SDS011;55448;51.330;4.946;2022-08-02T01:05:39;8.57;;;3.83;;
47605;SDS011;55448;51.330;4.946;2022-08-02T01:08:05;9.93;;;3.53;;
47605;SDS011;55448;51.330;4.946;2022-08-02T01:10:31;10.88;;;3.42;;
47605;SDS011;55448;51.330;4.946;2022-08-02T01:12:57;9.10;;;3.95;;
47605;SDS011;55448;51.330;4.946;2022-08-02T01:15:22;8.38;;;3.58;;
47605;SDS011;55448;51.330;4.946;2022-08-02T01:17:50;10.15;;;3.28;;
47605;SDS011;55448;51.330;4.946;2022-08-02T01:23:08;10.90;;;3.50;;
47605;SDS011;55448;51.330;4.946;2022-08-02T01:28:50;10.40;;;3.63;;
47605;SDS011;55448;51.330;4.946;2022-08-02T01:31:31;9.02;;;3.50;;
47605;SDS011;55448;51.330;4.946;2022-08-02T01:34:32;10.93;;;4.00;;
47605;SDS011;55448;51.330;4.946;2022-08-02T01:37:39;6.30;;;2.90;;
47605;SDS011;55448;51.330;4.946;2022-08-02T01:40:13;10.95;;;3.60;;
47605;SDS011;55448;51.330;4.946;2022-08-02T01:42:44;5.18;;;2.90;;
47605;SDS011;55448;51.330;4.946;2022-08-02T01:45:11;9.15;;;2.80;;
47605;SDS011;55448;51.330;4.946;2022-08-02T01:47:39;9.82;;;3.90;;
47605;SDS011;55448;51.330;4.946;2022-08-02T01:50:07;5.55;;;3.40;;
47605;SDS011;55448;51.330;4.946;2022-08-02T01:52:35;8.52;;;3.30;;
47605;SDS011;55448;51.330;4.946;2022-08-02T01:57:39;9.35;;;3.55;;
47605;SDS011;55448;51.330;4.946;2022-08-02T02:00:09;8.05;;;4.20;;
47605;SDS011;55448;51.330;4.946;2022-08-02T02:02:37;7.63;;;3.20;;
47605;SDS011;55448;51.330;4.946;2022-08-02T02:05:06;7.43;;;2.97;;
47605;SDS011;55448;51.330;4.946;2022-08-02T02:07:38;5.68;;;3.00;;
47605;SDS011;55448;51.330;4.946;2022-08-02T02:10:05;6.45;;;2.63;;
47605;SDS011;55448;51.330;4.946;2022-08-02T02:12:33;7.65;;;3.13;;
47605;SDS011;55448;51.330;4.946;2022-08-02T02:15:03;10.13;;;3.22;;
47605;SDS011;55448;51.330;4.946;2022-08-02T02:17:30;8.32;;;2.75;;
47605;SDS011;55448;51.330;4.946;2022-08-02T02:19:57;3.78;;;2.63;;
47605;SDS011;55448;51.330;4.946;2022-08-02T02:22:26;7.32;;;2.60;;
47605;SDS011;55448;51.330;4.946;2022-08-02T02:24:52;6.60;;;2.38;;
47605;SDS011;55448;51.330;4.946;2022-08-02T02:27:18;5.45;;;2.65;;
47605;SDS011;55448;51.330;4.946;2022-08-02T02:29:48;6.93;;;2.78;;
47605;SDS011;55448;51.330;4.946;2022-08-02T02:32:15;5.50;;;2.30;;
47605;SDS011;55448;51.330;4.946;2022-08-02T02:34:43;6.32;;;2.88;;
47605;SDS011;55448;51.330;4.946;2022-08-02T02:37:16;7.68;;;3.42;;
47605;SDS011;55448;51.330;4.946;2022-08-02T02:39:44;8.18;;;2.63;;
47605;SDS011;55448;51.330;4.946;2022-08-02T02:42:15;5.97;;;2.97;;
47605;SDS011;55448;51.330;4.946;2022-08-02T02:44:43;12.75;;;3.50;;
47605;SDS011;55448;51.330;4.946;2022-08-02T02:47:13;14.77;;;4.35;;
47605;SDS011;55448;51.330;4.946;2022-08-02T02:49:40;8.32;;;3.30;;
47605;SDS011;55448;51.330;4.946;2022-08-02T02:52:07;12.18;;;3.42;;
47605;SDS011;55448;51.330;4.946;2022-08-02T02:54:34;7.57;;;3.50;;
47605;SDS011;55448;51.330;4.946;2022-08-02T02:57:03;5.97;;;3.33;;
47605;SDS011;55448;51.330;4.946;2022-08-02T02:59:31;4.97;;;2.78;;
47605;SDS011;55448;51.330;4.946;2022-08-02T03:01:58;6.63;;;3.05;;
47605;SDS011;55448;51.330;4.946;2022-08-02T03:04:26;5.93;;;3.08;;
47605;SDS011;55448;51.330;4.946;2022-08-02T03:06:52;7.05;;;2.70;;
47605;SDS011;55448;51.330;4.946;2022-08-02T03:09:18;11.15;;;3.45;;
47605;SDS011;55448;51.330;4.946;2022-08-02T03:11:44;8.63;;;3.40;;
47605;SDS011;55448;51.330;4.946;2022-08-02T03:14:10;7.20;;;3.38;;
47605;SDS011;55448;51.330;4.946;2022-08-02T03:16:41;7.68;;;3.05;;
47605;SDS011;55448;51.330;4.946;2022-08-02T03:19:07;7.07;;;3.30;;
47605;SDS011;55448;51.330;4.946;2022-08-02T03:21:33;6.68;;;3.20;;
47605;SDS011;55448;51.330;4.946;2022-08-02T03:23:59;7.75;;;3.35;;
47605;SDS011;55448;51.330;4.946;2022-08-02T03:26:24;5.93;;;3.25;;
47605;SDS011;55448;51.330;4.946;2022-08-02T03:28:50;10.02;;;3.22;;
47605;SDS011;55448;51.330;4.946;2022-08-02T03:31:16;16.10;;;4.05;;
47605;SDS011;55448;51.330;4.946;2022-08-02T03:33:42;7.55;;;3.75;;
47605;SDS011;55448;51.330;4.946;2022-08-02T03:36:11;7.93;;;3.40;;
47605;SDS011;55448;51.330;4.946;2022-08-02T03:38:40;11.85;;;3.53;;
47605;SDS011;55448;51.330;4.946;2022-08-02T03:41:08;10.32;;;3.10;;
47605;SDS011;55448;51.330;4.946;2022-08-02T03:43:37;10.70;;;3.65;;
47605;SDS011;55448;51.330;4.946;2022-08-02T03:46:04;7.53;;;3.03;;
47605;SDS011;55448;51.330;4.946;2022-08-02T03:48:32;7.95;;;3.85;;
47605;SDS011;55448;51.330;4.946;2022-08-02T03:50:59;6.60;;;3.28;;
47605;SDS011;55448;51.330;4.946;2022-08-02T03:53:24;8.88;;;3.90;;
47605;SDS011;55448;51.330;4.946;2022-08-02T03:55:51;6.40;;;3.55;;
47605;SDS011;55448;51.330;4.946;2022-08-02T03:58:18;8.77;;;3.88;;
47605;SDS011;55448;51.330;4.946;2022-08-02T04:00:48;11.70;;;3.95;;
47605;SDS011;55448;51.330;4.946;2022-08-02T04:03:15;9.57;;;3.67;;
47605;SDS011;55448;51.330;4.946;2022-08-02T04:05:41;8.10;;;4.18;;
47605;SDS011;55448;51.330;4.946;2022-08-02T04:08:07;7.80;;;4.30;;
47605;SDS011;55448;51.330;4.946;2022-08-02T04:10:33;13.32;;;4.75;;
47605;SDS011;55448;51.330;4.946;2022-08-02T04:13:23;8.93;;;4.38;;
47605;SDS011;55448;51.330;4.946;2022-08-02T04:15:53;10.52;;;4.70;;
47605;SDS011;55448;51.330;4.946;2022-08-02T04:18:21;11.35;;;4.60;;
47605;SDS011;55448;51.330;4.946;2022-08-02T04:20:54;14.27;;;4.75;;
47605;SDS011;55448;51.330;4.946;2022-08-02T04:23:20;8.43;;;4.75;;
47605;SDS011;55448;51.330;4.946;2022-08-02T04:25:49;12.45;;;4.85;;
47605;SDS011;55448;51.330;4.946;2022-08-02T04:28:16;14.45;;;5.90;;
47605;SDS011;55448;51.330;4.946;2022-08-02T04:30:42;12.10;;;5.18;;
47605;SDS011;55448;51.330;4.946;2022-08-02T04:33:09;17.17;;;5.20;;
47605;SDS011;55448;51.330;4.946;2022-08-02T04:35:35;10.82;;;5.03;;
47605;SDS011;55448;51.330;4.946;2022-08-02T04:38:01;11.27;;;4.78;;
47605;SDS011;55448;51.330;4.946;2022-08-02T04:40:27;11.85;;;4.72;;
47605;SDS011;55448;51.330;4.946;2022-08-02T04:42:53;10.60;;;4.43;;
47605;SDS011;55448;51.330;4.946;2022-08-02T04:45:19;11.82;;;4.72;;
47605;SDS011;55448;51.330;4.946;2022-08-02T04:47:45;13.88;;;5.00;;
47605;SDS011;55448;51.330;4.946;2022-08-02T04:50:11;9.68;;;4.75;;
47605;SDS011;55448;51.330;4.946;2022-08-02T04:52:37;10.25;;;4.32;;
47605;SDS011;55448;51.330;4.946;2022-08-02T04:55:02;10.90;;;4.57;;
47605;SDS011;55448;51.330;4.946;2022-08-02T04:57:28;11.98;;;5.07;;
47605;SDS011;55448;51.330;4.946;2022-08-02T05:00:13;13.15;;;5.35;;
47605;SDS011;55448;51.330;4.946;2022-08-02T05:02:39;9.07;;;5.60;;
47605;SDS011;55448;51.330;4.946;2022-08-02T05:05:04;10.48;;;4.70;;
47605;SDS011;55448;51.330;4.946;2022-08-02T05:07:31;15.93;;;5.88;;
47605;SDS011;55448;51.330;4.946;2022-08-02T05:09:56;13.30;;;6.57;;
47605;SDS011;55448;51.330;4.946;2022-08-02T05:12:22;11.15;;;6.20;;
47605;SDS011;55448;51.330;4.946;2022-08-02T05:14:50;15.30;;;6.70;;
47605;SDS011;55448;51.330;4.946;2022-08-02T05:17:15;18.35;;;8.02;;
47605;SDS011;55448;51.330;4.946;2022-08-02T05:19:41;13.77;;;6.65;;
47605;SDS011;55448;51.330;4.946;2022-08-02T05:22:07;15.18;;;7.72;;
47605;SDS011;55448;51.330;4.946;2022-08-02T05:24:32;18.63;;;8.18;;
47605;SDS011;55448;51.330;4.946;2022-08-02T05:26:58;12.32;;;7.28;;
47605;SDS011;55448;51.330;4.946;2022-08-02T05:29:24;15.57;;;7.55;;
47605;SDS011;55448;51.330;4.946;2022-08-02T05:31:49;16.85;;;7.43;;
47605;SDS011;55448;51.330;4.946;2022-08-02T05:34:15;10.50;;;6.50;;
47605;SDS011;55448;51.330;4.946;2022-08-02T05:36:41;11.57;;;6.22;;
47605;SDS011;55448;51.330;4.946;2022-08-02T05:39:07;11.90;;;7.20;;
47605;SDS011;55448;51.330;4.946;2022-08-02T05:41:33;9.27;;;6.57;;
47605;SDS011;55448;51.330;4.946;2022-08-02T05:43:59;13.82;;;6.05;;
47605;SDS011;55448;51.330;4.946;2022-08-02T05:46:25;13.98;;;6.82;;
47605;SDS011;55448;51.330;4.946;2022-08-02T05:48:51;9.27;;;5.80;;
47605;SDS011;55448;51.330;4.946;2022-08-02T05:51:36;11.18;;;6.30;;
47605;SDS011;55448;51.330;4.946;2022-08-02T05:54:10;17.50;;;5.78;;
47605;SDS011;55448;51.330;4.946;2022-08-02T05:56:58;12.13;;;5.95;;
47605;SDS011;55448;51.330;4.946;2022-08-02T05:59:32;8.10;;;5.72;;
47605;SDS011;55448;51.330;4.946;2022-08-02T06:02:18;7.80;;;5.72;;
47605;SDS011;55448;51.330;4.946;2022-08-02T06:07:48;13.45;;;6.07;;
47605;SDS011;55448;51.330;4.946;2022-08-02T06:10:15;8.32;;;5.82;;
47605;SDS011;55448;51.330;4.946;2022-08-02T06:12:49;9.82;;;6.00;;
47605;SDS011;55448;51.330;4.946;2022-08-02T06:15:18;7.78;;;5.68;;
47605;SDS011;55448;51.330;4.946;2022-08-02T06:17:45;9.27;;;6.00;;
47605;SDS011;55448;51.330;4.946;2022-08-02T06:20:11;12.07;;;5.95;;
47605;SDS011;55448;51.330;4.946;2022-08-02T06:22:41;12.38;;;5.97;;
47605;SDS011;55448;51.330;4.946;2022-08-02T06:25:08;15.43;;;5.97;;
47605;SDS011;55448;51.330;4.946;2022-08-02T06:27:35;11.02;;;5.78;;
47605;SDS011;55448;51.330;4.946;2022-08-02T06:30:02;10.30;;;5.50;;
47605;SDS011;55448;51.330;4.946;2022-08-02T06:32:29;10.48;;;5.50;;
47605;SDS011;55448;51.330;4.946;2022-08-02T06:34:57;11.23;;;5.43;;
47605;SDS011;55448;51.330;4.946;2022-08-02T06:37:30;8.50;;;4.90;;
47605;SDS011;55448;51.330;4.946;2022-08-02T06:42:36;7.30;;;5.05;;
47605;SDS011;55448;51.330;4.946;2022-08-02T06:45:14;9.10;;;5.25;;
47605;SDS011;55448;51.330;4.946;2022-08-02T06:47:40;11.63;;;5.25;;
47605;SDS011;55448;51.330;4.946;2022-08-02T06:50:06;9.50;;;5.45;;
47605;SDS011;55448;51.330;4.946;2022-08-02T06:52:32;8.82;;;5.93;;
47605;SDS011;55448;51.330;4.946;2022-08-02T06:55:00;13.50;;;5.35;;
47605;SDS011;55448;51.330;4.946;2022-08-02T06:57:28;6.00;;;4.75;;
47605;SDS011;55448;51.330;4.946;2022-08-02T06:59:54;7.95;;;5.15;;
47605;SDS011;55448;51.330;4.946;2022-08-02T07:02:21;12.18;;;4.88;;
47605;SDS011;55448;51.330;4.946;2022-08-02T07:04:47;14.27;;;4.82;;
47605;SDS011;55448;51.330;4.946;2022-08-02T07:07:13;7.63;;;4.18;;
47605;SDS011;55448;51.330;4.946;2022-08-02T07:09:38;6.78;;;4.38;;
47605;SDS011;55448;51.330;4.946;2022-08-02T07:12:04;11.18;;;4.60;;
47605;SDS011;55448;51.330;4.946;2022-08-02T07:14:30;10.43;;;4.35;;
47605;SDS011;55448;51.330;4.946;2022-08-02T07:16:56;9.48;;;3.90;;
47605;SDS011;55448;51.330;4.946;2022-08-02T07:19:22;8.43;;;4.05;;
47605;SDS011;55448;51.330;4.946;2022-08-02T07:21:48;5.90;;;3.72;;
47605;SDS011;55448;51.330;4.946;2022-08-02T07:24:14;4.88;;;3.67;;
47605;SDS011;55448;51.330;4.946;2022-08-02T07:26:39;8.35;;;3.88;;
47605;SDS011;55448;51.330;4.946;2022-08-02T07:29:05;4.55;;;4.00;;
47605;SDS011;55448;51.330;4.946;2022-08-02T07:31:31;6.47;;;3.72;;
47605;SDS011;55448;51.330;4.946;2022-08-02T07:33:56;7.75;;;3.15;;
47605;SDS011;55448;51.330;4.946;2022-08-02T07:36:22;7.10;;;3.78;;
47605;SDS011;55448;51.330;4.946;2022-08-02T07:38:48;6.05;;;3.00;;
47605;SDS011;55448;51.330;4.946;2022-08-02T07:41:14;7.07;;;3.08;;
47605;SDS011;55448;51.330;4.946;2022-08-02T07:43:40;5.90;;;3.10;;
47605;SDS011;55448;51.330;4.946;2022-08-02T07:46:06;4.85;;;2.47;;
47605;SDS011;55448;51.330;4.946;2022-08-02T07:48:31;4.40;;;2.10;;
47605;SDS011;55448;51.330;4.946;2022-08-02T07:50:57;10.35;;;2.22;;
47605;SDS011;55448;51.330;4.946;2022-08-02T07:53:23;4.10;;;2.50;;
47605;SDS011;55448;51.330;4.946;2022-08-02T07:55:49;3.17;;;2.20;;
47605;SDS011;55448;51.330;4.946;2022-08-02T07:58:15;3.67;;;2.30;;
47605;SDS011;55448;51.330;4.946;2022-08-02T08:00:41;3.92;;;1.92;;
47605;SDS011;55448;51.330;4.946;2022-08-02T08:03:08;3.65;;;2.05;;
47605;SDS011;55448;51.330;4.946;2022-08-02T08:05:33;4.40;;;2.20;;
47605;SDS011;55448;51.330;4.946;2022-08-02T08:08:00;3.85;;;2.30;;
47605;SDS011;55448;51.330;4.946;2022-08-02T08:10:25;2.40;;;2.20;;
47605;SDS011;55448;51.330;4.946;2022-08-02T08:12:51;3.50;;;2.47;;
47605;SDS011;55448;51.330;4.946;2022-08-02T08:15:19;3.25;;;2.20;;
47605;SDS011;55448;51.330;4.946;2022-08-02T08:17:45;3.13;;;2.40;;
47605;SDS011;55448;51.330;4.946;2022-08-02T08:20:10;3.97;;;2.40;;
47605;SDS011;55448;51.330;4.946;2022-08-02T08:22:36;8.90;;;2.15;;
47605;SDS011;55448;51.330;4.946;2022-08-02T08:25:02;6.65;;;2.65;;
47605;SDS011;55448;51.330;4.946;2022-08-02T08:27:28;5.20;;;2.30;;
47605;SDS011;55448;51.330;4.946;2022-08-02T08:29:54;3.65;;;2.53;;
47605;SDS011;55448;51.330;4.946;2022-08-02T08:32:19;4.63;;;2.00;;
47605;SDS011;55448;51.330;4.946;2022-08-02T08:34:45;3.47;;;2.33;;
47605;SDS011;55448;51.330;4.946;2022-08-02T08:37:12;7.20;;;2.53;;
47605;SDS011;55448;51.330;4.946;2022-08-02T08:39:38;5.13;;;2.38;;
47605;SDS011;55448;51.330;4.946;2022-08-02T08:42:05;5.43;;;3.00;;
47605;SDS011;55448;51.330;4.946;2022-08-02T08:44:32;3.83;;;2.22;;
47605;SDS011;55448;51.330;4.946;2022-08-02T08:46:58;2.80;;;2.15;;
47605;SDS011;55448;51.330;4.946;2022-08-02T08:49:30;4.63;;;2.53;;
47605;SDS011;55448;51.330;4.946;2022-08-02T08:52:02;4.70;;;2.88;;
47605;SDS011;55448;51.330;4.946;2022-08-02T08:54:30;7.00;;;2.28;;
47605;SDS011;55448;51.330;4.946;2022-08-02T08:56:56;5.03;;;2.50;;
47605;SDS011;55448;51.330;4.946;2022-08-02T08:59:23;3.08;;;2.55;;
47605;SDS011;55448;51.330;4.946;2022-08-02T09:01:50;5.32;;;2.70;;
47605;SDS011;55448;51.330;4.946;2022-08-02T09:04:16;7.80;;;2.30;;
47605;SDS011;55448;51.330;4.946;2022-08-02T09:06:43;5.50;;;2.30;;
47605;SDS011;55448;51.330;4.946;2022-08-02T09:09:09;5.65;;;2.20;;
47605;SDS011;55448;51.330;4.946;2022-08-02T09:11:35;4.63;;;2.60;;
47605;SDS011;55448;51.330;4.946;2022-08-02T09:14:01;3.95;;;2.40;;
47605;SDS011;55448;51.330;4.946;2022-08-02T09:16:37;2.72;;;2.35;;
47605;SDS011;55448;51.330;4.946;2022-08-02T09:21:48;4.20;;;2.13;;
47605;SDS011;55448;51.330;4.946;2022-08-02T09:24:19;6.07;;;2.25;;
47605;SDS011;55448;51.330;4.946;2022-08-02T09:29:12;4.35;;;2.50;;
47605;SDS011;55448;51.330;4.946;2022-08-02T09:31:38;2.83;;;2.38;;
47605;SDS011;55448;51.330;4.946;2022-08-02T09:34:05;2.88;;;2.28;;
47605;SDS011;55448;51.330;4.946;2022-08-02T09:36:36;3.85;;;2.40;;
47605;SDS011;55448;51.330;4.946;2022-08-02T09:39:04;5.38;;;2.42;;
47605;SDS011;55448;51.330;4.946;2022-08-02T09:41:33;4.25;;;2.50;;
47605;SDS011;55448;51.330;4.946;2022-08-02T09:44:00;4.13;;;2.17;;
47605;SDS011;55448;51.330;4.946;2022-08-02T09:46:28;7.80;;;2.50;;
47605;SDS011;55448;51.330;4.946;2022-08-02T09:48:59;4.60;;;2.38;;
47605;SDS011;55448;51.330;4.946;2022-08-02T09:51:28;3.50;;;2.15;;
47605;SDS011;55448;51.330;4.946;2022-08-02T09:54:02;6.20;;;2.00;;
47605;SDS011;55448;51.330;4.946;2022-08-02T09:56:46;6.53;;;2.70;;
47605;SDS011;55448;51.330;4.946;2022-08-02T09:59:14;5.43;;;2.70;;
47605;SDS011;55448;51.330;4.946;2022-08-02T10:01:41;6.93;;;2.67;;
47605;SDS011;55448;51.330;4.946;2022-08-02T10:04:12;6.15;;;2.50;;
47605;SDS011;55448;51.330;4.946;2022-08-02T10:09:05;6.97;;;2.30;;
47605;SDS011;55448;51.330;4.946;2022-08-02T10:11:32;6.05;;;2.35;;
47605;SDS011;55448;51.330;4.946;2022-08-02T10:13:59;4.07;;;2.30;;
47605;SDS011;55448;51.330;4.946;2022-08-02T10:16:29;2.33;;;2.05;;
47605;SDS011;55448;51.330;4.946;2022-08-02T10:18:57;5.97;;;2.90;;
47605;SDS011;55448;51.330;4.946;2022-08-02T10:24:29;4.47;;;2.28;;
47605;SDS011;55448;51.330;4.946;2022-08-02T10:26:56;2.67;;;2.00;;
47605;SDS011;55448;51.330;4.946;2022-08-02T10:29:28;2.05;;;1.90;;
47605;SDS011;55448;51.330;4.946;2022-08-02T10:32:05;2.03;;;1.83;;
47605;SDS011;55448;51.330;4.946;2022-08-02T10:37:28;3.97;;;1.98;;
47605;SDS011;55448;51.330;4.946;2022-08-02T10:39:57;2.47;;;1.90;;
47605;SDS011;55448;51.330;4.946;2022-08-02T10:45:11;7.53;;;2.40;;
47605;SDS011;55448;51.330;4.946;2022-08-02T10:47:54;5.18;;;2.20;;
47605;SDS011;55448;51.330;4.946;2022-08-02T10:50:45;4.05;;;2.20;;
47605;SDS011;55448;51.330;4.946;2022-08-02T10:53:20;2.50;;;2.30;;
47605;SDS011;55448;51.330;4.946;2022-08-02T10:56:03;2.22;;;2.00;;
47605;SDS011;55448;51.330;4.946;2022-08-02T10:58:31;4.03;;;1.65;;
47605;SDS011;55448;51.330;4.946;2022-08-02T11:00:58;7.07;;;1.90;;
47605;SDS011;55448;51.330;4.946;2022-08-02T11:03:36;7.63;;;2.28;;
47605;SDS011;55448;51.330;4.946;2022-08-02T11:06:10;6.20;;;2.28;;
47605;SDS011;55448;51.330;4.946;2022-08-02T11:08:37;5.30;;;2.03;;
47605;SDS011;55448;51.330;4.946;2022-08-02T11:13:32;2.88;;;1.65;;
47605;SDS011;55448;51.330;4.946;2022-08-02T11:16:51;2.40;;;1.70;;
47605;SDS011;55448;51.330;4.946;2022-08-02T11:19:22;2.67;;;1.65;;
47605;SDS011;55448;51.330;4.946;2022-08-02T11:24:36;2.40;;;1.50;;
47605;SDS011;55448;51.330;4.946;2022-08-02T11:27:07;3.15;;;1.75;;
47605;SDS011;55448;51.330;4.946;2022-08-02T11:29:41;3.08;;;1.80;;
47605;SDS011;55448;51.330;4.946;2022-08-02T11:32:15;5.88;;;2.28;;
47605;SDS011;55448;51.330;4.946;2022-08-02T11:34:42;2.45;;;2.05;;
47605;SDS011;55448;51.330;4.946;2022-08-02T11:37:09;2.53;;;1.85;;
47605;SDS011;55448;51.330;4.946;2022-08-02T11:39:35;2.78;;;1.95;;
47605;SDS011;55448;51.330;4.946;2022-08-02T11:42:01;3.63;;;2.03;;
47605;SDS011;55448;51.330;4.946;2022-08-02T11:44:27;3.97;;;2.10;;
47605;SDS011;55448;51.330;4.946;2022-08-02T11:46:58;7.53;;;2.40;;
47605;SDS011;55448;51.330;4.946;2022-08-02T11:49:25;3.63;;;1.75;;
47605;SDS011;55448;51.330;4.946;2022-08-02T11:54:23;2.55;;;1.92;;
47605;SDS011;55448;51.330;4.946;2022-08-02T11:56:50;2.72;;;2.03;;
47605;SDS011;55448;51.330;4.946;2022-08-02T11:59:16;2.13;;;1.90;;
47605;SDS011;55448;51.330;4.946;2022-08-02T12:01:41;2.80;;;2.10;;
47605;SDS011;55448;51.330;4.946;2022-08-02T12:04:08;3.65;;;2.00;;
47605;SDS011;55448;51.330;4.946;2022-08-02T12:06:33;3.35;;;1.73;;
47605;SDS011;55448;51.330;4.946;2022-08-02T12:11:32;3.83;;;1.60;;
47605;SDS011;55448;51.330;4.946;2022-08-02T12:13:58;2.67;;;1.55;;
47605;SDS011;55448;51.330;4.946;2022-08-02T12:16:31;5.32;;;1.60;;
47605;SDS011;55448;51.330;4.946;2022-08-02T12:19:17;4.40;;;1.70;;
47605;SDS011;55448;51.330;4.946;2022-08-02T12:21:43;3.58;;;1.52;;
47605;SDS011;55448;51.330;4.946;2022-08-02T12:24:10;4.10;;;1.50;;
47605;SDS011;55448;51.330;4.946;2022-08-02T12:26:43;1.67;;;1.27;;
47605;SDS011;55448;51.330;4.946;2022-08-02T12:29:11;4.43;;;1.52;;
47605;SDS011;55448;51.330;4.946;2022-08-02T12:31:38;2.85;;;1.50;;
47605;SDS011;55448;51.330;4.946;2022-08-02T12:34:16;1.67;;;1.40;;
47605;SDS011;55448;51.330;4.946;2022-08-02T12:36:56;8.38;;;1.58;;
47605;SDS011;55448;51.330;4.946;2022-08-02T12:39:31;4.32;;;1.67;;
47605;SDS011;55448;51.330;4.946;2022-08-02T12:42:05;3.08;;;1.50;;
47605;SDS011;55448;51.330;4.946;2022-08-02T12:44:33;1.95;;;1.48;;
47605;SDS011;55448;51.330;4.946;2022-08-02T12:47:02;3.30;;;1.52;;
47605;SDS011;55448;51.330;4.946;2022-08-02T12:49:35;2.22;;;1.48;;
47605;SDS011;55448;51.330;4.946;2022-08-02T12:52:07;1.30;;;1.20;;
47605;SDS011;55448;51.330;4.946;2022-08-02T12:54:43;2.15;;;1.60;;
47605;SDS011;55448;51.330;4.946;2022-08-02T12:57:09;2.35;;;1.42;;
47605;SDS011;55448;51.330;4.946;2022-08-02T12:59:37;1.55;;;1.13;;
47605;SDS011;55448;51.330;4.946;2022-08-02T13:02:07;2.55;;;1.60;;
47605;SDS011;55448;51.330;4.946;2022-08-02T13:04:38;4.10;;;1.67;;
47605;SDS011;55448;51.330;4.946;2022-08-02T13:07:04;2.97;;;1.30;;
47605;SDS011;55448;51.330;4.946;2022-08-02T13:09:40;2.03;;;1.30;;
47605;SDS011;55448;51.330;4.946;2022-08-02T13:12:11;4.78;;;1.40;;
47605;SDS011;55448;51.330;4.946;2022-08-02T13:14:37;4.45;;;1.38;;
47605;SDS011;55448;51.330;4.946;2022-08-02T13:17:02;1.42;;;1.10;;
47605;SDS011;55448;51.330;4.946;2022-08-02T13:19:28;2.10;;;1.30;;
47605;SDS011;55448;51.330;4.946;2022-08-02T13:21:54;2.00;;;1.50;;
47605;SDS011;55448;51.330;4.946;2022-08-02T13:24:20;6.30;;;1.60;;
47605;SDS011;55448;51.330;4.946;2022-08-02T13:26:46;3.47;;;1.40;;
47605;SDS011;55448;51.330;4.946;2022-08-02T13:29:11;5.45;;;1.33;;
47605;SDS011;55448;51.330;4.946;2022-08-02T13:31:38;1.58;;;1.30;;
47605;SDS011;55448;51.330;4.946;2022-08-02T13:34:07;2.45;;;1.50;;
47605;SDS011;55448;51.330;4.946;2022-08-02T13:36:34;2.97;;;1.60;;
47605;SDS011;55448;51.330;4.946;2022-08-02T13:39:00;2.28;;;1.20;;
47605;SDS011;55448;51.330;4.946;2022-08-02T13:41:29;4.13;;;1.40;;
47605;SDS011;55448;51.330;4.946;2022-08-02T13:43:55;2.08;;;1.55;;
47605;SDS011;55448;51.330;4.946;2022-08-02T13:46:21;2.97;;;1.60;;
47605;SDS011;55448;51.330;4.946;2022-08-02T13:48:47;9.07;;;1.50;;
47605;SDS011;55448;51.330;4.946;2022-08-02T13:51:13;1.83;;;1.27;;
47605;SDS011;55448;51.330;4.946;2022-08-02T13:53:38;2.03;;;1.30;;
47605;SDS011;55448;51.330;4.946;2022-08-02T13:56:05;1.77;;;1.00;;
47605;SDS011;55448;51.330;4.946;2022-08-02T13:58:31;1.83;;;1.40;;
47605;SDS011;55448;51.330;4.946;2022-08-02T14:00:57;3.05;;;0.80;;
47605;SDS011;55448;51.330;4.946;2022-08-02T14:03:23;1.95;;;1.42;;
47605;SDS011;55448;51.330;4.946;2022-08-02T14:05:49;3.40;;;1.33;;
47605;SDS011;55448;51.330;4.946;2022-08-02T14:08:15;1.35;;;1.10;;
47605;SDS011;55448;51.330;4.946;2022-08-02T14:10:42;4.30;;;1.23;;
47605;SDS011;55448;51.330;4.946;2022-08-02T14:13:07;5.45;;;1.40;;
47605;SDS011;55448;51.330;4.946;2022-08-02T14:15:33;1.88;;;1.48;;
47605;SDS011;55448;51.330;4.946;2022-08-02T14:17:59;4.50;;;1.35;;
47605;SDS011;55448;51.330;4.946;2022-08-02T14:20:25;2.20;;;1.10;;
47605;SDS011;55448;51.330;4.946;2022-08-02T14:22:51;0.80;;;0.80;;
47605;SDS011;55448;51.330;4.946;2022-08-02T14:25:17;2.88;;;1.13;;
47605;SDS011;55448;51.330;4.946;2022-08-02T14:27:43;2.08;;;1.00;;
47605;SDS011;55448;51.330;4.946;2022-08-02T14:30:09;3.47;;;1.02;;
47605;SDS011;55448;51.330;4.946;2022-08-02T14:32:35;1.65;;;0.90;;
47605;SDS011;55448;51.330;4.946;2022-08-02T14:35:00;1.63;;;1.10;;
47605;SDS011;55448;51.330;4.946;2022-08-02T14:37:26;4.38;;;1.48;;
47605;SDS011;55448;51.330;4.946;2022-08-02T14:39:52;2.50;;;1.45;;
47605;SDS011;55448;51.330;4.946;2022-08-02T14:42:18;4.55;;;1.13;;
47605;SDS011;55448;51.330;4.946;2022-08-02T14:44:43;1.40;;;1.30;;
47605;SDS011;55448;51.330;4.946;2022-08-02T14:47:09;3.15;;;1.35;;
47605;SDS011;55448;51.330;4.946;2022-08-02T14:49:35;1.95;;;1.50;;
47605;SDS011;55448;51.330;4.946;2022-08-02T14:52:01;3.15;;;1.75;;
47605;SDS011;55448;51.330;4.946;2022-08-02T14:54:26;2.08;;;1.17;;
47605;SDS011;55448;51.330;4.946;2022-08-02T14:56:55;5.18;;;1.48;;
47605;SDS011;55448;51.330;4.946;2022-08-02T14:59:21;3.97;;;1.40;;
47605;SDS011;55448;51.330;4.946;2022-08-02T15:01:47;2.33;;;1.40;;
47605;SDS011;55448;51.330;4.946;2022-08-02T15:04:13;3.10;;;1.30;;
47605;SDS011;55448;51.330;4.946;2022-08-02T15:06:39;1.63;;;1.20;;
47605;SDS011;55448;51.330;4.946;2022-08-02T15:09:04;8.00;;;1.63;;
47605;SDS011;55448;51.330;4.946;2022-08-02T15:11:30;4.53;;;1.50;;
47605;SDS011;55448;51.330;4.946;2022-08-02T15:13:56;2.15;;;1.25;;
47605;SDS011;55448;51.330;4.946;2022-08-02T15:16:23;3.72;;;1.00;;
47605;SDS011;55448;51.330;4.946;2022-08-02T15:18:49;4.88;;;1.15;;
47605;SDS011;55448;51.330;4.946;2022-08-02T15:21:15;4.80;;;1.15;;
47605;SDS011;55448;51.330;4.946;2022-08-02T15:23:41;6.82;;;1.23;;
47605;SDS011;55448;51.330;4.946;2022-08-02T15:26:07;2.10;;;1.10;;
47605;SDS011;55448;51.330;4.946;2022-08-02T15:28:32;6.90;;;1.17;;
47605;SDS011;55448;51.330;4.946;2022-08-02T15:30:58;4.40;;;1.23;;
47605;SDS011;55448;51.330;4.946;2022-08-02T15:33:24;2.45;;;1.23;;